Time;durP1;ratioP1;P1;durP2;ratioP2;P2;SDS_P1;SDS_P2;PMS_P1;PMS_P2;Temp;Humidity;BMP_temperature;BMP_pressure;BME280_temperature;BME280_humidity;BME280_pressure;Samples;Min_cycle;Max_cycle;Signal;HPM_P1;HPM_P2
2022/01/03 00:00:31;;;;;;;14.07;2.27;;;;;;;;;;5055262;28;20283;-71
2022/01/03 00:02:59;;;;;;;9.93;1.60;;;;;;;;;;5055329;28;20814;-71
2022/01/03 00:05:26;;;;;;;17.63;2.57;;;;;;;;;;5053874;28;20299;-71
2022/01/03 00:07:52;;;;;;;14.67;2.60;;;;;;;;;;5054315;28;20303;-71
2022/01/03 00:10:19;;;;;;;12.57;1.83;;;;;;;;;;5055452;28;20286;-71
2022/01/03 00:12:46;;;;;;;16.73;2.30;;;;;;;;;;5055191;28;20353;-71
2022/01/03 00:15:13;;;;;;;21.43;2.97;;;;;;;;;;5055186;28;20366;-71
2022/01/03 00:17:39;;;;;;;14.57;2.63;;;;;;;;;;5054923;28;20801;-71
2022/01/03 00:20:06;;;;;;;19.43;3.67;;;;;;;;;;5055209;28;20271;-71
2022/01/03 00:22:37;;;;;;;18.70;2.70;;;;;;;;;;5053730;28;20375;-71
2022/01/03 00:25:10;;;;;;;26.23;4.00;;;;;;;;;;5055219;28;20737;-71
2022/01/03 00:28:01;;;;;;;24.13;2.97;;;;;;;;;;5053849;28;20383;-71
2022/01/03 00:30:27;;;;;;;21.87;4.07;;;;;;;;;;5018029;28;20654;-71
2022/01/03 00:32:54;;;;;;;26.33;4.17;;;;;;;;;;5055083;28;20279;-71
2022/01/03 00:35:21;;;;;;;20.53;3.57;;;;;;;;;;5054875;28;20286;-71
2022/01/03 00:37:47;;;;;;;25.63;4.50;;;;;;;;;;5054751;28;20291;-71
2022/01/03 00:40:14;;;;;;;20.30;3.50;;;;;;;;;;5054821;28;20280;-71
2022/01/03 00:42:41;;;;;;;21.20;3.37;;;;;;;;;;5054507;28;20279;-71
2022/01/03 00:45:08;;;;;;;25.13;3.80;;;;;;;;;;5054613;28;20299;-71
2022/01/03 00:47:34;;;;;;;25.90;3.43;;;;;;;;;;5053392;28;20426;-71
2022/01/03 00:50:08;;;;;;;26.53;4.30;;;;;;;;;;5054670;28;20287;-71
2022/01/03 00:52:35;;;;;;;29.47;4.53;;;;;;;;;;5054327;28;20287;-71
2022/01/03 00:55:01;;;;;;;25.97;3.70;;;;;;;;;;5054494;28;20307;-71
2022/01/03 00:57:42;;;;;;;22.17;4.17;;;;;;;;;;5054157;28;20311;-71
2022/01/03 01:00:09;;;;;;;20.17;3.23;;;;;;;;;;5053121;28;20296;-71
2022/01/03 01:02:36;;;;;;;25.33;3.50;;;;;;;;;;5054054;28;20360;-71
2022/01/03 01:05:03;;;;;;;26.57;4.27;;;;;;;;;;5054172;28;20296;-71
2022/01/03 01:07:30;;;;;;;26.20;4.67;;;;;;;;;;5052506;28;20294;-72
2022/01/03 01:09:59;;;;;;;25.30;4.90;;;;;;;;;;5054234;28;20319;-71
2022/01/03 01:12:26;;;;;;;31.67;4.53;;;;;;;;;;5052888;28;20292;-74
2022/01/03 01:14:52;;;;;;;23.37;3.77;;;;;;;;;;5054466;28;20345;-71
2022/01/03 01:17:18;;;;;;;28.83;3.97;;;;;;;;;;5054025;28;20371;-71
2022/01/03 01:19:44;;;;;;;25.77;4.53;;;;;;;;;;5053658;28;20366;-71
2022/01/03 01:22:10;;;;;;;26.13;4.37;;;;;;;;;;5053968;28;20287;-71
2022/01/03 01:24:47;;;;;;;32.67;5.13;;;;;;;;;;5053552;28;20386;-71
2022/01/03 01:29:58;;;;;;;24.98;3.97;;;;;;;;;;5054196;28;20279;-71
2022/01/03 01:32:24;;;;;;;25.90;3.63;;;;;;;;;;5053813;28;20092;-71
2022/01/03 01:34:51;;;;;;;29.00;4.13;;;;;;;;;;5053473;28;20298;-71
2022/01/03 01:37:21;;;;;;;23.90;4.63;;;;;;;;;;5053656;28;20314;-71
2022/01/03 01:39:48;;;;;;;25.13;3.70;;;;;;;;;;5052358;28;20315;-71
2022/01/03 01:42:16;;;;;;;25.50;4.10;;;;;;;;;;5052549;28;20684;-71
2022/01/03 01:44:47;;;;;;;22.00;3.57;;;;;;;;;;5053158;28;20351;-71
2022/01/03 01:47:14;;;;;;;19.97;4.20;;;;;;;;;;5052770;28;20287;-71
2022/01/03 01:49:45;;;;;;;28.67;4.50;;;;;;;;;;5053062;28;20345;-71
2022/01/03 01:52:15;;;;;;;28.20;5.00;;;;;;;;;;5053650;28;20282;-71
2022/01/03 01:54:46;;;;;;;34.53;4.73;;;;;;;;;;5053182;28;20279;-71
2022/01/03 01:57:18;;;;;;;23.43;4.13;;;;;;;;;;5053321;28;20299;-71
2022/01/03 02:00:04;;;;;;;30.57;4.83;;;;;;;;;;5053411;28;20275;-71
2022/01/03 02:02:37;;;;;;;30.93;4.57;;;;;;;;;;5035803;28;20294;-71
2022/01/03 02:05:30;;;;;;;26.67;4.60;;;;;;;;;;5053039;28;20306;-71
2022/01/03 02:08:15;;;;;;;27.63;4.50;;;;;;;;;;5052914;28;20271;-71
2022/01/03 02:10:43;;;;;;;30.02;4.78;;;;;;;;;;5052579;28;20276;-71
2022/01/03 02:13:09;;;;;;;27.10;4.63;;;;;;;;;;5052793;28;20065;-71
2022/01/03 02:15:37;;;;;;;30.17;4.77;;;;;;;;;;5052836;28;20370;-71
2022/01/03 02:18:04;;;;;;;29.60;5.20;;;;;;;;;;5053133;28;20286;-70
2022/01/03 02:20:32;;;;;;;28.90;4.90;;;;;;;;;;5053001;28;20364;-71
2022/01/03 02:22:58;;;;;;;25.10;4.70;;;;;;;;;;5051716;28;20291;-71
2022/01/03 02:25:26;;;;;;;30.73;4.53;;;;;;;;;;5052845;28;20296;-71
2022/01/03 02:27:52;;;;;;;38.27;6.67;;;;;;;;;;5052583;28;20284;-71
2022/01/03 02:30:23;;;;;;;31.57;5.47;;;;;;;;;;5053082;28;20283;-71
2022/01/03 02:32:49;;;;;;;26.03;4.67;;;;;;;;;;5052485;28;20283;-71
2022/01/03 02:35:16;;;;;;;30.97;5.03;;;;;;;;;;5052875;28;20276;-71
2022/01/03 02:37:44;;;;;;;30.93;5.40;;;;;;;;;;5052444;28;20287;-71
2022/01/03 02:40:11;;;;;;;25.27;4.60;;;;;;;;;;5052773;28;20358;-71
2022/01/03 02:42:38;;;;;;;28.80;5.40;;;;;;;;;;5052515;28;20287;-74
2022/01/03 02:45:15;;;;;;;38.97;5.43;;;;;;;;;;5051714;28;20310;-71
2022/01/03 02:47:45;;;;;;;33.50;5.73;;;;;;;;;;5052439;28;20288;-71
2022/01/03 02:50:12;;;;;;;38.57;5.47;;;;;;;;;;5052772;28;20286;-71
2022/01/03 02:52:38;;;;;;;30.67;4.30;;;;;;;;;;5052434;28;20393;-73
2022/01/03 02:55:05;;;;;;;21.77;4.60;;;;;;;;;;5052684;28;20424;-71
2022/01/03 02:57:35;;;;;;;35.10;5.53;;;;;;;;;;5052323;28;20275;-71
2022/01/03 03:00:02;;;;;;;30.03;5.23;;;;;;;;;;5052040;28;20797;-71
2022/01/03 03:02:28;;;;;;;31.63;5.10;;;;;;;;;;5052513;28;20288;-71
2022/01/03 03:04:56;;;;;;;31.23;5.17;;;;;;;;;;5051016;28;20291;-71
2022/01/03 03:07:23;;;;;;;28.97;4.90;;;;;;;;;;5052494;28;20337;-71
2022/01/03 03:09:49;;;;;;;24.27;4.87;;;;;;;;;;5051029;28;20294;-71
2022/01/03 03:12:15;;;;;;;33.83;5.73;;;;;;;;;;5052509;28;20291;-71
2022/01/03 03:14:41;;;;;;;31.47;4.80;;;;;;;;;;5051719;28;20287;-72
2022/01/03 03:17:08;;;;;;;30.07;5.30;;;;;;;;;;5052428;28;20677;-71
2022/01/03 03:19:49;;;;;;;33.13;5.07;;;;;;;;;;5052559;28;20279;-71
2022/01/03 03:22:15;;;;;;;36.90;5.27;;;;;;;;;;5052776;28;20820;-71
2022/01/03 03:24:41;;;;;;;41.97;7.20;;;;;;;;;;5055040;28;20311;-74
2022/01/03 03:27:13;;;;;;;30.27;5.57;;;;;;;;;;5056163;28;20742;-71
2022/01/03 03:29:48;;;;;;;32.43;5.23;;;;;;;;;;5056098;28;20291;-71
2022/01/03 03:32:14;;;;;;;40.10;5.55;;;;;;;;;;5056240;28;20333;-71
2022/01/03 03:34:41;;;;;;;31.60;5.67;;;;;;;;;;5056008;28;20048;-71
2022/01/03 03:37:09;;;;;;;37.07;4.73;;;;;;;;;;5055658;28;20766;-71
2022/01/03 03:39:36;;;;;;;30.73;5.33;;;;;;;;;;5055865;28;20284;-71
2022/01/03 03:42:03;;;;;;;33.50;4.93;;;;;;;;;;5055634;28;20754;-71
2022/01/03 03:44:29;;;;;;;26.20;4.73;;;;;;;;;;5054679;28;20822;-71
2022/01/03 03:46:55;;;;;;;25.83;4.97;;;;;;;;;;5055576;28;20275;-71
2022/01/03 03:49:21;;;;;;;31.63;6.63;;;;;;;;;;5056010;28;20275;-71
2022/01/03 03:51:48;;;;;;;41.70;5.50;;;;;;;;;;5055423;28;20355;-71
2022/01/03 03:54:14;;;;;;;32.27;5.00;;;;;;;;;;5054354;28;20797;-71
2022/01/03 03:56:40;;;;;;;33.80;5.47;;;;;;;;;;5038043;28;20349;-71
2022/01/03 03:59:06;;;;;;;32.13;5.47;;;;;;;;;;5055315;28;20313;-71
2022/01/03 04:01:32;;;;;;;36.13;6.07;;;;;;;;;;5055318;28;20291;-71
2022/01/03 04:03:58;;;;;;;34.77;5.00;;;;;;;;;;5055111;28;20302;-71
2022/01/03 04:06:24;;;;;;;35.13;5.30;;;;;;;;;;5055643;28;20287;-71
2022/01/03 04:08:50;;;;;;;35.20;4.73;;;;;;;;;;5054132;28;20291;-71
2022/01/03 04:11:17;;;;;;;37.10;6.00;;;;;;;;;;5055575;28;20314;-71
2022/01/03 04:13:43;;;;;;;37.20;4.63;;;;;;;;;;5055341;28;20291;-70
2022/01/03 04:16:09;;;;;;;30.07;5.37;;;;;;;;;;5054879;28;20287;-71
2022/01/03 04:18:36;;;;;;;33.90;5.00;;;;;;;;;;5055157;28;20291;-71
2022/01/03 04:21:02;;;;;;;33.57;5.43;;;;;;;;;;5054818;28;20283;-71
2022/01/03 04:23:28;;;;;;;38.13;5.73;;;;;;;;;;5054983;28;20280;-71
2022/01/03 04:25:54;;;;;;;36.47;5.40;;;;;;;;;;5053836;28;20670;-71
2022/01/03 04:28:20;;;;;;;33.30;5.57;;;;;;;;;;5055221;28;20736;-71
2022/01/03 04:30:47;;;;;;;41.30;6.13;;;;;;;;;;5054971;28;20337;-71
2022/01/03 04:33:13;;;;;;;39.80;5.37;;;;;;;;;;5054593;28;20355;-70
2022/01/03 04:35:39;;;;;;;32.63;6.03;;;;;;;;;;5054377;28;20330;-70
2022/01/03 04:38:06;;;;;;;37.93;4.90;;;;;;;;;;5054208;28;20337;-71
2022/01/03 04:40:32;;;;;;;36.60;5.60;;;;;;;;;;5054747;28;20279;-71
2022/01/03 04:42:58;;;;;;;32.23;5.90;;;;;;;;;;5054431;28;20275;-71
2022/01/03 04:45:24;;;;;;;35.70;6.20;;;;;;;;;;5054310;28;20751;-71
2022/01/03 04:47:50;;;;;;;37.00;6.57;;;;;;;;;;5053492;28;20288;-70
2022/01/03 04:50:16;;;;;;;37.67;6.50;;;;;;;;;;5053270;28;20298;-71
2022/01/03 04:52:43;;;;;;;38.03;5.87;;;;;;;;;;5054528;28;20323;-71
2022/01/03 04:55:09;;;;;;;40.33;5.50;;;;;;;;;;5053048;28;20275;-70
2022/01/03 04:57:35;;;;;;;37.87;6.73;;;;;;;;;;5053210;28;20290;-70
2022/01/03 05:00:01;;;;;;;33.60;5.73;;;;;;;;;;5054131;28;20280;-71
2022/01/03 05:02:27;;;;;;;37.43;5.50;;;;;;;;;;5054442;28;20309;-71
2022/01/03 05:04:53;;;;;;;31.40;5.33;;;;;;;;;;5053802;28;20851;-74
2022/01/03 05:07:19;;;;;;;39.07;6.10;;;;;;;;;;5053291;28;20294;-70
2022/01/03 05:09:45;;;;;;;39.30;6.70;;;;;;;;;;5054232;28;20284;-70
2022/01/03 05:12:11;;;;;;;37.63;6.60;;;;;;;;;;5053892;28;20291;-71
2022/01/03 05:14:38;;;;;;;42.03;5.97;;;;;;;;;;5054492;28;20284;-70
2022/01/03 05:17:04;;;;;;;36.43;7.00;;;;;;;;;;5052864;28;20292;-71
2022/01/03 05:19:30;;;;;;;34.67;6.83;;;;;;;;;;5053957;28;20284;-70
2022/01/03 05:21:56;;;;;;;39.90;6.87;;;;;;;;;;5053732;28;20635;-71
2022/01/03 05:24:22;;;;;;;41.50;6.83;;;;;;;;;;5053848;28;20299;-71
2022/01/03 05:26:49;;;;;;;42.80;6.23;;;;;;;;;;5052732;28;20290;-70
2022/01/03 05:29:15;;;;;;;42.40;7.57;;;;;;;;;;5053257;28;20643;-70
2022/01/03 05:31:41;;;;;;;37.90;6.30;;;;;;;;;;5053869;28;20365;-70
2022/01/03 05:34:07;;;;;;;38.67;6.23;;;;;;;;;;5053557;28;20361;-70
2022/01/03 05:36:33;;;;;;;36.97;6.47;;;;;;;;;;5053790;28;20279;-70
2022/01/03 05:39:00;;;;;;;34.33;6.83;;;;;;;;;;5053444;28;20279;-70
2022/01/03 05:41:26;;;;;;;34.53;7.07;;;;;;;;;;5053644;28;20293;-70
2022/01/03 05:43:52;;;;;;;40.13;6.60;;;;;;;;;;5053768;28;20368;-70
2022/01/03 05:46:19;;;;;;;41.20;6.33;;;;;;;;;;5052345;28;20291;-70
2022/01/03 05:48:45;;;;;;;36.43;5.40;;;;;;;;;;5053534;28;20287;-70
2022/01/03 05:51:11;;;;;;;40.80;6.57;;;;;;;;;;5052916;28;20837;-71
2022/01/03 05:53:37;;;;;;;39.50;6.50;;;;;;;;;;5053604;28;20287;-70
2022/01/03 05:56:03;;;;;;;46.00;6.60;;;;;;;;;;5053072;28;20284;-71
2022/01/03 05:58:29;;;;;;;35.00;6.30;;;;;;;;;;5053335;28;20330;-70
2022/01/03 06:00:55;;;;;;;38.13;5.90;;;;;;;;;;5052499;28;20678;-70
2022/01/03 06:03:23;;;;;;;37.67;7.40;;;;;;;;;;5052598;28;20849;-70
2022/01/03 06:08:21;;;;;;;38.67;6.27;;;;;;;;;;5053103;28;20335;-70
2022/01/03 06:10:48;;;;;;;33.13;6.20;;;;;;;;;;5053185;28;20294;-70
2022/01/03 06:13:14;;;;;;;41.53;6.10;;;;;;;;;;5051470;28;20291;-71
2022/01/03 06:15:41;;;;;;;36.23;5.77;;;;;;;;;;5052061;28;20378;-70
2022/01/03 06:18:11;;;;;;;39.57;7.20;;;;;;;;;;5052676;28;20283;-70
2022/01/03 06:20:40;;;;;;;43.67;6.63;;;;;;;;;;5053259;28;20286;-70
2022/01/03 06:23:07;;;;;;;41.73;7.00;;;;;;;;;;5052651;28;20337;-71
2022/01/03 06:25:33;;;;;;;32.40;5.23;;;;;;;;;;5052978;28;20295;-71
2022/01/03 06:27:59;;;;;;;41.30;6.47;;;;;;;;;;5053058;28;20432;-70
2022/01/03 06:30:25;;;;;;;39.37;5.60;;;;;;;;;;5052563;28;20282;-70
2022/01/03 06:32:52;;;;;;;34.10;6.20;;;;;;;;;;5052857;28;20321;-70
2022/01/03 06:35:18;;;;;;;40.53;6.13;;;;;;;;;;5052539;28;20667;-71
2022/01/03 06:37:45;;;;;;;36.57;6.33;;;;;;;;;;5052830;28;20296;-70
2022/01/03 06:40:11;;;;;;;40.47;6.43;;;;;;;;;;5052510;28;20283;-70
2022/01/03 06:42:37;;;;;;;38.57;6.60;;;;;;;;;;5052776;28;20287;-70
2022/01/03 06:45:03;;;;;;;39.33;7.87;;;;;;;;;;5052629;28;20291;-70
2022/01/03 06:47:29;;;;;;;43.47;7.00;;;;;;;;;;5052480;28;20279;-70
2022/01/03 06:49:55;;;;;;;39.63;6.23;;;;;;;;;;5052714;28;20289;-70
2022/01/03 06:52:22;;;;;;;37.80;6.90;;;;;;;;;;5052192;28;20820;-70
2022/01/03 06:54:48;;;;;;;37.77;6.47;;;;;;;;;;5052618;28;20328;-70
2022/01/03 06:57:14;;;;;;;37.17;5.57;;;;;;;;;;5051636;28;20288;-71
2022/01/03 06:59:40;;;;;;;36.33;6.37;;;;;;;;;;5056628;28;20291;-70
2022/01/03 07:02:06;;;;;;;52.70;7.37;;;;;;;;;;5056752;28;20279;-70
2022/01/03 07:04:32;;;;;;;37.27;6.63;;;;;;;;;;5056502;28;20770;-70
2022/01/03 07:06:58;;;;;;;38.43;6.20;;;;;;;;;;5056607;28;20786;-70
2022/01/03 07:09:24;;;;;;;32.47;5.83;;;;;;;;;;5056275;28;20295;-70
2022/01/03 07:11:51;;;;;;;40.60;5.90;;;;;;;;;;5056509;28;20369;-70
2022/01/03 07:19:37;;;;;;;36.67;7.53;;;;;;;;;;5056401;28;20271;-70
2022/01/03 07:22:05;;;;;;;46.27;5.97;;;;;;;;;;5056299;28;20771;-70
2022/01/03 07:24:35;;;;;;;40.77;5.77;;;;;;;;;;5055893;28;20394;-70
2022/01/03 07:27:01;;;;;;;40.60;6.40;;;;;;;;;;5055898;28;20767;-70
2022/01/03 07:29:28;;;;;;;36.57;6.60;;;;;;;;;;5054801;28;20344;-70
2022/01/03 07:31:54;;;;;;;32.77;5.17;;;;;;;;;;5056196;28;20773;-70
2022/01/03 07:34:20;;;;;;;37.43;6.83;;;;;;;;;;5055766;28;20311;-70
2022/01/03 07:36:46;;;;;;;40.40;6.80;;;;;;;;;;5056063;28;20290;-70
2022/01/03 07:39:13;;;;;;;43.57;7.40;;;;;;;;;;5055722;28;20348;-71
2022/01/03 07:41:39;;;;;;;41.77;5.53;;;;;;;;;;5054939;28;20684;-70
2022/01/03 07:44:05;;;;;;;43.87;7.23;;;;;;;;;;5055850;28;20314;-70
2022/01/03 07:46:31;;;;;;;42.90;7.60;;;;;;;;;;5055568;28;20327;-70
2022/01/03 07:48:57;;;;;;;38.63;7.13;;;;;;;;;;5055799;28;20294;-70
2022/01/03 07:51:23;;;;;;;38.33;6.43;;;;;;;;;;5055377;28;20374;-70
2022/01/03 07:53:50;;;;;;;38.97;7.67;;;;;;;;;;5054722;28;20302;-70
2022/01/03 07:56:18;;;;;;;38.07;6.00;;;;;;;;;;5055327;28;20279;-71
2022/01/03 07:58:44;;;;;;;46.37;6.63;;;;;;;;;;5055564;28;20775;-70
2022/01/03 08:01:11;;;;;;;40.37;6.57;;;;;;;;;;5055621;28;20778;-70
2022/01/03 08:03:37;;;;;;;39.47;5.47;;;;;;;;;;5055154;28;20282;-70
2022/01/03 08:06:04;;;;;;;34.57;6.30;;;;;;;;;;5055393;28;20306;-70
2022/01/03 08:08:30;;;;;;;39.73;5.83;;;;;;;;;;5054705;28;20283;-70
2022/01/03 08:10:56;;;;;;;43.40;6.87;;;;;;;;;;5053542;28;20366;-70
2022/01/03 08:13:22;;;;;;;39.87;6.60;;;;;;;;;;5055137;28;20750;-70
2022/01/03 08:15:48;;;;;;;41.17;7.13;;;;;;;;;;5055275;28;20291;-70
2022/01/03 08:18:14;;;;;;;38.60;6.03;;;;;;;;;;5054176;28;20640;-70
2022/01/03 08:20:41;;;;;;;36.83;6.43;;;;;;;;;;5054914;28;20283;-70
2022/01/03 08:23:07;;;;;;;39.13;6.60;;;;;;;;;;5055105;28;20280;-70
2022/01/03 08:25:37;;;;;;;43.00;6.80;;;;;;;;;;5054676;28;20303;-70
2022/01/03 08:28:09;;;;;;;45.10;7.73;;;;;;;;;;5038011;28;20345;-70
2022/01/03 08:30:36;;;;;;;25.40;5.80;;;;;;;;;;5054697;28;20291;-70
2022/01/03 08:33:03;;;;;;;32.67;6.17;;;;;;;;;;5055098;28;20809;-71
2022/01/03 08:35:29;;;;;;;41.00;7.27;;;;;;;;;;5054647;28;20283;-70
2022/01/03 08:37:55;;;;;;;42.23;6.37;;;;;;;;;;5055008;28;20452;-70
2022/01/03 08:40:21;;;;;;;32.73;5.30;;;;;;;;;;5053447;28;20724;-70
2022/01/03 08:42:48;;;;;;;32.00;6.03;;;;;;;;;;5055050;28;20290;-70
2022/01/03 08:45:14;;;;;;;35.27;5.97;;;;;;;;;;5054626;28;20310;-70
2022/01/03 08:47:41;;;;;;;37.40;5.87;;;;;;;;;;5053259;28;20280;-70
2022/01/03 08:50:08;;;;;;;34.23;6.27;;;;;;;;;;5054717;28;20291;-70
2022/01/03 08:52:34;;;;;;;35.73;6.87;;;;;;;;;;5053375;28;20299;-70
2022/01/03 08:55:00;;;;;;;35.57;6.20;;;;;;;;;;5054583;28;20291;-70
2022/01/03 08:57:26;;;;;;;33.70;6.17;;;;;;;;;;5054359;28;20281;-70
2022/01/03 08:59:52;;;;;;;38.43;6.10;;;;;;;;;;5054489;28;20327;-70
2022/01/03 09:02:18;;;;;;;37.23;7.03;;;;;;;;;;5054427;28;20323;-70
2022/01/03 09:04:45;;;;;;;33.90;5.17;;;;;;;;;;5052794;28;20409;-70
2022/01/03 09:07:12;;;;;;;32.33;6.43;;;;;;;;;;5054325;28;20766;-70
2022/01/03 09:09:38;;;;;;;40.43;6.90;;;;;;;;;;5053975;28;20367;-70
2022/01/03 09:12:06;;;;;;;42.03;6.37;;;;;;;;;;5054290;28;20323;-70
2022/01/03 09:14:33;;;;;;;42.47;6.27;;;;;;;;;;5053453;28;20374;-70
2022/01/03 09:16:59;;;;;;;36.03;6.40;;;;;;;;;;5054171;28;20291;-70
2022/01/03 09:19:25;;;;;;;41.87;6.87;;;;;;;;;;5053781;28;20367;-71
2022/01/03 09:21:59;;;;;;;35.73;6.67;;;;;;;;;;5052737;28;20370;-70
2022/01/03 09:24:42;;;;;;;37.17;7.37;;;;;;;;;;5052574;28;20299;-71
2022/01/03 09:29:56;;;;;;;35.00;5.20;;;;;;;;;;5053797;28;20279;-70
2022/01/03 09:32:22;;;;;;;28.50;4.93;;;;;;;;;;5053533;28;20778;-69
2022/01/03 09:34:48;;;;;;;39.67;7.07;;;;;;;;;;5053484;28;20284;-70
2022/01/03 09:37:19;;;;;;;38.20;6.13;;;;;;;;;;5053877;28;20371;-70
2022/01/03 09:39:45;;;;;;;35.47;6.20;;;;;;;;;;5053429;28;20305;-70
2022/01/03 09:42:12;;;;;;;34.73;5.40;;;;;;;;;;5053618;28;20362;-70
2022/01/03 09:44:38;;;;;;;40.13;6.73;;;;;;;;;;5053252;28;20299;-70
2022/01/03 09:47:06;;;;;;;34.20;6.23;;;;;;;;;;5053580;28;20295;-70
2022/01/03 09:49:36;;;;;;;36.87;5.53;;;;;;;;;;5053151;28;20283;-70
2022/01/03 09:52:06;;;;;;;40.70;7.07;;;;;;;;;;5052336;28;20319;-70
2022/01/03 09:54:32;;;;;;;32.57;5.77;;;;;;;;;;5053205;28;20280;-69
2022/01/03 09:57:02;;;;;;;32.17;6.27;;;;;;;;;;5053493;28;20362;-69
2022/01/03 09:59:29;;;;;;;34.53;6.57;;;;;;;;;;5035687;28;20283;-70
2022/01/03 10:01:56;;;;;;;39.57;8.30;;;;;;;;;;5053415;28;20366;-69
2022/01/03 10:04:23;;;;;;;37.53;5.60;;;;;;;;;;5053251;28;20369;-69
2022/01/03 10:06:49;;;;;;;30.20;5.43;;;;;;;;;;5052973;28;20329;-69
2022/01/03 10:09:15;;;;;;;31.93;5.53;;;;;;;;;;5053168;28;20363;-70
2022/01/03 10:11:41;;;;;;;35.37;6.30;;;;;;;;;;5052855;28;20778;-69
2022/01/03 10:14:09;;;;;;;35.77;6.33;;;;;;;;;;5053328;28;20366;-69
2022/01/03 10:16:35;;;;;;;40.77;6.40;;;;;;;;;;5052914;28;20323;-69
2022/01/03 10:19:01;;;;;;;32.70;4.90;;;;;;;;;;5053230;28;20283;-70
2022/01/03 10:21:36;;;;;;;36.73;5.80;;;;;;;;;;5052167;28;20283;-70
2022/01/03 10:24:02;;;;;;;42.60;6.22;;;;;;;;;;5053034;28;20299;-69
2022/01/03 10:26:28;;;;;;;31.50;5.77;;;;;;;;;;5053030;28;20132;-71
2022/01/03 10:29:10;;;;;;;38.20;7.73;;;;;;;;;;5052325;28;20763;-69
2022/01/03 10:31:38;;;;;;;36.10;6.43;;;;;;;;;;5052054;28;20636;-70
2022/01/03 10:34:06;;;;;;;33.80;5.27;;;;;;;;;;5052292;28;20286;-69
2022/01/03 10:36:33;;;;;;;35.60;6.67;;;;;;;;;;5052371;28;20280;-72
2022/01/03 10:39:10;;;;;;;30.23;5.37;;;;;;;;;;5049698;28;20283;-70
2022/01/03 10:41:37;;;;;;;34.23;6.07;;;;;;;;;;5052255;28;20275;-70
2022/01/03 10:44:03;;;;;;;33.53;6.70;;;;;;;;;;5052631;28;20318;-69
2022/01/03 10:46:31;;;;;;;36.93;6.10;;;;;;;;;;5052686;28;20275;-70
2022/01/03 10:49:06;;;;;;;37.77;6.70;;;;;;;;;;5052393;28;20276;-70
2022/01/03 10:51:32;;;;;;;36.63;5.97;;;;;;;;;;5052667;28;20302;-70
2022/01/03 10:53:58;;;;;;;39.50;6.20;;;;;;;;;;5052338;28;20119;-71
2022/01/03 10:56:36;;;;;;;28.67;5.07;;;;;;;;;;5052661;28;20286;-72
2022/01/03 10:59:14;;;;;;;35.47;6.43;;;;;;;;;;5052634;28;20291;-71
2022/01/03 11:01:41;;;;;;;31.27;6.30;;;;;;;;;;5052319;28;20384;-71
2022/01/03 11:04:10;;;;;;;27.77;5.50;;;;;;;;;;5052529;28;20306;-70
2022/01/03 11:06:49;;;;;;;32.13;5.73;;;;;;;;;;5052518;28;20284;-72
2022/01/03 11:12:17;;;;;;;31.73;4.87;;;;;;;;;;5052676;28;20351;-70
2022/01/03 11:14:43;;;;;;;37.57;6.70;;;;;;;;;;5052359;28;20339;-70
2022/01/03 11:17:29;;;;;;;32.50;6.00;;;;;;;;;;5052416;28;20359;-70
2022/01/03 11:19:59;;;;;;;37.77;7.00;;;;;;;;;;5052179;28;20326;-70
2022/01/03 11:22:52;;;;;;;28.87;5.30;;;;;;;;;;5052386;28;20284;-70
2022/01/03 11:25:29;;;;;;;33.30;6.33;;;;;;;;;;5049907;28;20882;-70
2022/01/03 11:27:55;;;;;;;31.07;6.73;;;;;;;;;;5052140;28;20279;-70
2022/01/03 11:30:21;;;;;;;30.90;5.93;;;;;;;;;;5051363;28;20291;-70
2022/01/03 11:32:49;;;;;;;31.33;5.67;;;;;;;;;;5051998;28;20279;-70
2022/01/03 11:35:15;;;;;;;34.00;5.53;;;;;;;;;;5051355;28;20643;-70
2022/01/03 11:37:44;;;;;;;31.60;5.57;;;;;;;;;;5051966;28;20322;-70
2022/01/03 11:40:11;;;;;;;26.67;5.70;;;;;;;;;;5052249;28;20367;-70
2022/01/03 11:42:38;;;;;;;33.83;5.73;;;;;;;;;;5052318;28;20294;-70
2022/01/03 11:45:04;;;;;;;28.03;4.43;;;;;;;;;;5055069;28;20295;-70
2022/01/03 11:47:31;;;;;;;36.57;5.53;;;;;;;;;;5055852;28;20362;-70
2022/01/03 11:49:58;;;;;;;29.40;5.40;;;;;;;;;;5055623;28;20596;-70
2022/01/03 11:52:24;;;;;;;33.40;5.43;;;;;;;;;;5055833;28;20303;-70
2022/01/03 11:54:52;;;;;;;25.80;5.27;;;;;;;;;;5055439;28;20279;-70
2022/01/03 11:57:40;;;;;;;30.60;5.43;;;;;;;;;;5055875;28;20279;-70
2022/01/03 12:05:44;;;;;;;36.10;6.83;;;;;;;;;;5055175;28;20386;-74
2022/01/03 12:08:19;;;;;;;35.03;5.53;;;;;;;;;;5055361;28;20635;-74
2022/01/03 12:10:46;;;;;;;28.13;4.70;;;;;;;;;;5054090;28;20318;-71
2022/01/03 12:13:12;;;;;;;26.77;4.97;;;;;;;;;;5054772;28;20798;-70
2022/01/03 12:15:41;;;;;;;37.30;6.87;;;;;;;;;;5054155;28;20311;-69
2022/01/03 12:18:25;;;;;;;30.47;5.30;;;;;;;;;;5054944;28;20358;-71
2022/01/03 12:20:52;;;;;;;31.37;5.73;;;;;;;;;;5054855;28;20343;-70
2022/01/03 12:23:37;;;;;;;31.40;5.83;;;;;;;;;;5055083;28;20292;-73
2022/01/03 12:26:29;;;;;;;35.65;6.13;;;;;;;;;;5054755;28;20279;-70
2022/01/03 12:29:08;;;;;;;28.97;4.83;;;;;;;;;;5052115;28;20089;-70
2022/01/03 12:31:53;;;;;;;29.83;5.27;;;;;;;;;;5054991;28;20285;-70
2022/01/03 12:34:20;;;;;;;33.72;5.85;;;;;;;;;;5055159;28;20275;-70
2022/01/03 12:37:09;;;;;;;28.87;5.50;;;;;;;;;;5054808;28;20051;-72
2022/01/03 12:39:55;;;;;;;33.00;6.03;;;;;;;;;;5046732;28;20762;-70
2022/01/03 12:42:42;;;;;;;32.77;5.07;;;;;;;;;;5055217;28;20370;-70
2022/01/03 12:45:08;;;;;;;32.83;5.33;;;;;;;;;;5043634;28;20402;-70
2022/01/03 12:47:38;;;;;;;36.53;5.93;;;;;;;;;;5054829;28;20681;-69
2022/01/03 12:50:27;;;;;;;29.40;5.77;;;;;;;;;;5053444;28;20280;-73
2022/01/03 12:52:54;;;;;;;31.50;5.93;;;;;;;;;;5054429;28;20279;-73
2022/01/03 12:55:38;;;;;;;30.37;5.93;;;;;;;;;;5054161;28;20272;-73
2022/01/03 12:58:17;;;;;;;27.37;5.53;;;;;;;;;;5054301;28;20280;-70
2022/01/03 13:00:46;;;;;;;27.47;5.57;;;;;;;;;;5054566;28;20362;-69
2022/01/03 13:03:34;;;;;;;28.33;7.07;;;;;;;;;;5053727;28;20794;-69
2022/01/03 13:06:06;;;;;;;30.10;6.03;;;;;;;;;;5054047;28;20303;-70
2022/01/03 13:08:32;;;;;;;34.10;6.63;;;;;;;;;;5054354;28;20363;-71
2022/01/03 13:11:08;;;;;;;41.33;7.07;;;;;;;;;;5053943;28;20279;-69
2022/01/03 13:13:39;;;;;;;38.20;6.67;;;;;;;;;;5054372;28;20284;-69
2022/01/03 13:16:17;;;;;;;31.23;6.20;;;;;;;;;;5053883;28;20367;-70
2022/01/03 13:18:47;;;;;;;37.87;6.37;;;;;;;;;;5053083;28;20303;-69
2022/01/03 13:21:14;;;;;;;44.23;7.57;;;;;;;;;;5053825;28;20284;-70
2022/01/03 13:23:53;;;;;;;35.83;5.90;;;;;;;;;;5054026;28;20318;-71
2022/01/03 13:26:20;;;;;;;32.97;6.53;;;;;;;;;;5054015;28;20767;-69
2022/01/03 13:28:48;;;;;;;35.30;6.13;;;;;;;;;;5054100;28;20341;-69
2022/01/03 13:31:14;;;;;;;36.10;6.70;;;;;;;;;;5052623;28;20756;-70
2022/01/03 13:33:40;;;;;;;40.67;7.37;;;;;;;;;;5053751;28;20287;-73
2022/01/03 13:36:07;;;;;;;37.60;5.90;;;;;;;;;;5053444;28;20301;-74
2022/01/03 13:38:33;;;;;;;37.10;6.90;;;;;;;;;;5052758;28;20349;-74
2022/01/03 13:41:12;;;;;;;34.87;6.17;;;;;;;;;;5053435;28;20275;-69
2022/01/03 13:43:47;;;;;;;34.00;6.37;;;;;;;;;;5053674;28;20674;-69
2022/01/03 13:49:23;;;;;;;38.97;6.83;;;;;;;;;;5029547;28;20106;-70
2022/01/03 13:51:49;;;;;;;37.47;6.83;;;;;;;;;;5053750;28;20627;-71
2022/01/03 13:54:29;;;;;;;38.70;7.50;;;;;;;;;;5053140;28;20333;-71
2022/01/03 13:56:55;;;;;;;33.33;7.63;;;;;;;;;;5053410;28;20283;-69
2022/01/03 13:59:22;;;;;;;36.43;7.77;;;;;;;;;;5053351;28;20286;-73
2022/01/03 14:01:49;;;;;;;32.70;6.03;;;;;;;;;;5053345;28;20337;-77
2022/01/03 14:04:15;;;;;;;40.77;6.63;;;;;;;;;;5052888;28;20331;-77
2022/01/03 14:06:43;;;;;;;34.17;6.53;;;;;;;;;;5052775;28;20354;-71
2022/01/03 14:09:18;;;;;;;43.13;6.93;;;;;;;;;;5052761;28;20287;-73
2022/01/03 14:11:45;;;;;;;31.43;5.37;;;;;;;;;;5053223;28;20275;-74
2022/01/03 14:14:12;;;;;;;29.10;5.97;;;;;;;;;;5051449;28;20291;-74
2022/01/03 14:16:55;;;;;;;38.07;6.87;;;;;;;;;;5053117;28;20290;-74
2022/01/03 14:19:21;;;;;;;29.47;5.97;;;;;;;;;;5052780;28;20748;-70
2022/01/03 14:21:48;;;;;;;42.17;7.17;;;;;;;;;;5051890;28;20283;-71
2022/01/03 14:24:14;;;;;;;43.53;6.77;;;;;;;;;;5052646;28;20433;-72
2022/01/03 14:26:41;;;;;;;36.67;7.67;;;;;;;;;;5052973;28;20370;-71
2022/01/03 14:29:08;;;;;;;39.17;6.73;;;;;;;;;;5052746;28;20275;-72
2022/01/03 14:31:44;;;;;;;33.07;6.67;;;;;;;;;;5051722;28;20361;-71
2022/01/03 14:34:10;;;;;;;41.67;6.63;;;;;;;;;;5052624;28;20287;-71
2022/01/03 14:36:38;;;;;;;36.53;6.63;;;;;;;;;;5052832;28;20838;-70
2022/01/03 14:39:04;;;;;;;48.63;7.63;;;;;;;;;;5051342;28;20290;-71
2022/01/03 14:41:30;;;;;;;42.33;7.07;;;;;;;;;;5052817;28;20276;-69
2022/01/03 14:44:00;;;;;;;38.77;6.77;;;;;;;;;;5051480;28;20338;-70
2022/01/03 14:46:31;;;;;;;38.27;7.53;;;;;;;;;;5052458;28;20362;-70
2022/01/03 14:48:57;;;;;;;38.37;6.80;;;;;;;;;;5051925;28;20294;-71
2022/01/03 14:51:32;;;;;;;39.07;6.63;;;;;;;;;;5050636;28;20634;-71
2022/01/03 14:53:58;;;;;;;;;;;;;;;;;;5052567;28;20290;-70
2022/01/03 14:56:27;;;;;;;47.17;7.33;;;;;;;;;;5052382;28;19921;-71
2022/01/03 14:59:14;;;;;;;32.83;6.43;;;;;;;;;;5051610;28;20053;-70
2022/01/03 15:01:41;;;;;;;42.93;7.17;;;;;;;;;;5052911;28;20291;-71
2022/01/03 15:04:07;;;;;;;44.53;7.40;;;;;;;;;;5052209;28;20334;-71